sensor_id;sensor_type;location;lat;lon;timestamp;temperature;humidity
11855;DHT22;5987;53.140;8.904;2022-10-16T00:02:02;13.60;99.90
11855;DHT22;5987;53.140;8.904;2022-10-16T00:05:06;13.60;99.90
11855;DHT22;5987;53.140;8.904;2022-10-16T00:08:11;13.50;99.90
11855;DHT22;5987;53.140;8.904;2022-10-16T00:11:18;13.50;99.90
11855;DHT22;5987;53.140;8.904;2022-10-16T00:14:23;13.40;99.90
11855;DHT22;5987;53.140;8.904;2022-10-16T00:17:27;13.30;99.90
11855;DHT22;5987;53.140;8.904;2022-10-16T00:20:33;13.30;99.90
11855;DHT22;5987;53.140;8.904;2022-10-16T00:23:39;13.30;99.90
11855;DHT22;5987;53.140;8.904;2022-10-16T00:26:44;13.30;99.90
11855;DHT22;5987;53.140;8.904;2022-10-16T00:29:49;13.30;99.90
11855;DHT22;5987;53.140;8.904;2022-10-16T00:32:54;13.30;99.90
11855;DHT22;5987;53.140;8.904;2022-10-16T00:35:58;13.30;99.90
11855;DHT22;5987;53.140;8.904;2022-10-16T00:39:02;13.30;99.90
11855;DHT22;5987;53.140;8.904;2022-10-16T00:42:10;13.30;99.90
11855;DHT22;5987;53.140;8.904;2022-10-16T00:45:17;13.20;99.90
11855;DHT22;5987;53.140;8.904;2022-10-16T00:48:21;13.20;99.90
11855;DHT22;5987;53.140;8.904;2022-10-16T00:51:30;13.10;99.90
11855;DHT22;5987;53.140;8.904;2022-10-16T00:54:36;13.10;99.90
11855;DHT22;5987;53.140;8.904;2022-10-16T00:57:41;13.20;99.90
11855;DHT22;5987;53.140;8.904;2022-10-16T01:00:47;13.00;99.90
11855;DHT22;5987;53.140;8.904;2022-10-16T01:03:50;13.00;99.90
11855;DHT22;5987;53.140;8.904;2022-10-16T01:07:00;13.00;99.90
11855;DHT22;5987;53.140;8.904;2022-10-16T01:10:19;12.90;99.90
11855;DHT22;5987;53.140;8.904;2022-10-16T01:13:35;13.00;99.90
11855;DHT22;5987;53.140;8.904;2022-10-16T01:16:48;12.90;99.90
11855;DHT22;5987;53.140;8.904;2022-10-16T01:20:08;12.90;99.90
11855;DHT22;5987;53.140;8.904;2022-10-16T01:23:27;12.80;99.90
11855;DHT22;5987;53.140;8.904;2022-10-16T01:30:23;12.80;99.90
11855;DHT22;5987;53.140;8.904;2022-10-16T01:33:34;12.70;99.90
11855;DHT22;5987;53.140;8.904;2022-10-16T01:36:45;12.70;99.90
11855;DHT22;5987;53.140;8.904;2022-10-16T01:39:55;12.70;99.90
11855;DHT22;5987;53.140;8.904;2022-10-16T01:43:08;12.70;99.90
11855;DHT22;5987;53.140;8.904;2022-10-16T01:46:18;12.70;99.90
11855;DHT22;5987;53.140;8.904;2022-10-16T01:49:29;12.70;99.90
11855;DHT22;5987;53.140;8.904;2022-10-16T01:52:39;12.60;99.90
11855;DHT22;5987;53.140;8.904;2022-10-16T01:55:47;12.60;99.90
11855;DHT22;5987;53.140;8.904;2022-10-16T01:58:57;12.60;99.90
11855;DHT22;5987;53.140;8.904;2022-10-16T02:02:08;12.60;99.90
11855;DHT22;5987;53.140;8.904;2022-10-16T02:05:18;12.60;99.90
11855;DHT22;5987;53.140;8.904;2022-10-16T02:08:28;12.60;99.90
11855;DHT22;5987;53.140;8.904;2022-10-16T02:11:33;12.60;99.90
11855;DHT22;5987;53.140;8.904;2022-10-16T02:14:39;12.50;99.90
11855;DHT22;5987;53.140;8.904;2022-10-16T02:17:44;12.60;99.90
11855;DHT22;5987;53.140;8.904;2022-10-16T02:20:51;12.60;99.90
11855;DHT22;5987;53.140;8.904;2022-10-16T02:24:03;12.50;99.90
11855;DHT22;5987;53.140;8.904;2022-10-16T02:27:16;12.50;99.90
11855;DHT22;5987;53.140;8.904;2022-10-16T02:30:29;12.50;99.90
11855;DHT22;5987;53.140;8.904;2022-10-16T02:33:39;12.60;99.90
11855;DHT22;5987;53.140;8.904;2022-10-16T02:36:46;12.50;99.90
11855;DHT22;5987;53.140;8.904;2022-10-16T02:39:52;12.40;99.90
11855;DHT22;5987;53.140;8.904;2022-10-16T02:42:58;12.40;99.90
11855;DHT22;5987;53.140;8.904;2022-10-16T02:46:03;12.40;99.90
11855;DHT22;5987;53.140;8.904;2022-10-16T02:49:07;12.40;99.90
11855;DHT22;5987;53.140;8.904;2022-10-16T02:52:10;12.40;99.90
11855;DHT22;5987;53.140;8.904;2022-10-16T02:55:14;12.40;99.90
11855;DHT22;5987;53.140;8.904;2022-10-16T02:58:18;12.50;99.90
11855;DHT22;5987;53.140;8.904;2022-10-16T03:01:23;12.50;99.90
11855;DHT22;5987;53.140;8.904;2022-10-16T03:04:27;12.50;99.90
11855;DHT22;5987;53.140;8.904;2022-10-16T03:07:30;12.40;99.90
11855;DHT22;5987;53.140;8.904;2022-10-16T03:10:34;12.40;99.90
11855;DHT22;5987;53.140;8.904;2022-10-16T03:13:38;12.40;99.90
11855;DHT22;5987;53.140;8.904;2022-10-16T03:16:43;12.40;99.90
11855;DHT22;5987;53.140;8.904;2022-10-16T03:19:47;12.40;99.90
11855;DHT22;5987;53.140;8.904;2022-10-16T03:22:50;12.40;99.90
11855;DHT22;5987;53.140;8.904;2022-10-16T03:25:54;12.40;99.90
11855;DHT22;5987;53.140;8.904;2022-10-16T03:28:58;12.40;99.90
11855;DHT22;5987;53.140;8.904;2022-10-16T03:32:03;12.50;99.90
11855;DHT22;5987;53.140;8.904;2022-10-16T03:35:07;12.40;99.90
11855;DHT22;5987;53.140;8.904;2022-10-16T03:38:11;12.40;99.90
11855;DHT22;5987;53.140;8.904;2022-10-16T03:41:15;12.40;99.90
11855;DHT22;5987;53.140;8.904;2022-10-16T03:44:18;12.30;99.90
11855;DHT22;5987;53.140;8.904;2022-10-16T03:47:23;12.30;99.90
11855;DHT22;5987;53.140;8.904;2022-10-16T03:50:27;12.30;99.90
11855;DHT22;5987;53.140;8.904;2022-10-16T03:53:31;12.30;99.90
11855;DHT22;5987;53.140;8.904;2022-10-16T03:56:35;12.30;99.90
11855;DHT22;5987;53.140;8.904;2022-10-16T03:59:39;12.20;99.90
11855;DHT22;5987;53.140;8.904;2022-10-16T04:02:43;12.30;99.90
11855;DHT22;5987;53.140;8.904;2022-10-16T04:05:52;12.40;99.90
11855;DHT22;5987;53.140;8.904;2022-10-16T04:08:56;12.40;99.90
11855;DHT22;5987;53.140;8.904;2022-10-16T04:11:59;12.40;99.90
11855;DHT22;5987;53.140;8.904;2022-10-16T04:15:03;12.40;99.90
11855;DHT22;5987;53.140;8.904;2022-10-16T04:18:08;12.40;99.90
11855;DHT22;5987;53.140;8.904;2022-10-16T04:21:12;12.40;99.90
11855;DHT22;5987;53.140;8.904;2022-10-16T04:24:16;12.40;99.90
11855;DHT22;5987;53.140;8.904;2022-10-16T04:27:19;12.30;99.90
11855;DHT22;5987;53.140;8.904;2022-10-16T04:30:23;12.40;99.90
11855;DHT22;5987;53.140;8.904;2022-10-16T04:33:28;12.40;99.90
11855;DHT22;5987;53.140;8.904;2022-10-16T04:36:32;12.40;99.90
11855;DHT22;5987;53.140;8.904;2022-10-16T04:39:35;12.50;99.90
11855;DHT22;5987;53.140;8.904;2022-10-16T04:42:39;12.50;99.90
11855;DHT22;5987;53.140;8.904;2022-10-16T04:45:43;12.50;99.90
11855;DHT22;5987;53.140;8.904;2022-10-16T04:48:48;12.50;99.90
11855;DHT22;5987;53.140;8.904;2022-10-16T04:51:52;12.60;99.90
11855;DHT22;5987;53.140;8.904;2022-10-16T04:54:55;12.60;99.90
11855;DHT22;5987;53.140;8.904;2022-10-16T04:58:02;12.60;99.90
11855;DHT22;5987;53.140;8.904;2022-10-16T05:01:06;12.60;99.90
11855;DHT22;5987;53.140;8.904;2022-10-16T05:04:11;12.60;99.90
11855;DHT22;5987;53.140;8.904;2022-10-16T05:07:17;12.60;99.90
11855;DHT22;5987;53.140;8.904;2022-10-16T05:10:20;12.60;99.90
11855;DHT22;5987;53.140;8.904;2022-10-16T05:13:24;12.60;99.90
11855;DHT22;5987;53.140;8.904;2022-10-16T05:16:28;12.60;99.90
11855;DHT22;5987;53.140;8.904;2022-10-16T05:19:33;12.60;99.90
11855;DHT22;5987;53.140;8.904;2022-10-16T05:22:37;12.70;99.90
11855;DHT22;5987;53.140;8.904;2022-10-16T05:25:41;12.70;99.90
11855;DHT22;5987;53.140;8.904;2022-10-16T05:28:45;12.70;99.90
11855;DHT22;5987;53.140;8.904;2022-10-16T05:31:50;12.80;99.90
11855;DHT22;5987;53.140;8.904;2022-10-16T05:34:56;12.80;99.90
11855;DHT22;5987;53.140;8.904;2022-10-16T05:38:01;12.90;99.90
11855;DHT22;5987;53.140;8.904;2022-10-16T05:41:06;12.90;99.90
11855;DHT22;5987;53.140;8.904;2022-10-16T05:44:10;13.00;99.90
11855;DHT22;5987;53.140;8.904;2022-10-16T05:47:14;13.00;99.90
11855;DHT22;5987;53.140;8.904;2022-10-16T05:50:19;13.00;99.90
11855;DHT22;5987;53.140;8.904;2022-10-16T05:53:23;13.00;99.90
11855;DHT22;5987;53.140;8.904;2022-10-16T05:56:27;13.00;99.90
11855;DHT22;5987;53.140;8.904;2022-10-16T05:59:32;13.00;99.90
11855;DHT22;5987;53.140;8.904;2022-10-16T06:02:35;13.00;99.90
11855;DHT22;5987;53.140;8.904;2022-10-16T06:05:40;13.10;99.90
11855;DHT22;5987;53.140;8.904;2022-10-16T06:08:46;13.10;99.90
11855;DHT22;5987;53.140;8.904;2022-10-16T06:11:50;13.10;99.90
11855;DHT22;5987;53.140;8.904;2022-10-16T06:14:54;13.10;99.90
11855;DHT22;5987;53.140;8.904;2022-10-16T06:17:58;13.10;99.90
11855;DHT22;5987;53.140;8.904;2022-10-16T06:21:09;13.10;99.90
11855;DHT22;5987;53.140;8.904;2022-10-16T06:24:13;13.20;99.90
11855;DHT22;5987;53.140;8.904;2022-10-16T06:27:17;13.20;99.90
11855;DHT22;5987;53.140;8.904;2022-10-16T06:30:21;13.20;99.90
11855;DHT22;5987;53.140;8.904;2022-10-16T06:33:24;13.30;99.90
11855;DHT22;5987;53.140;8.904;2022-10-16T06:36:29;13.30;99.90
11855;DHT22;5987;53.140;8.904;2022-10-16T06:39:33;13.30;99.90
11855;DHT22;5987;53.140;8.904;2022-10-16T06:42:36;13.30;99.90
11855;DHT22;5987;53.140;8.904;2022-10-16T06:45:40;13.30;99.90
11855;DHT22;5987;53.140;8.904;2022-10-16T06:48:44;13.30;99.90
11855;DHT22;5987;53.140;8.904;2022-10-16T06:51:49;13.30;99.90
11855;DHT22;5987;53.140;8.904;2022-10-16T06:54:53;13.40;99.90
11855;DHT22;5987;53.140;8.904;2022-10-16T06:57:56;13.30;99.90
11855;DHT22;5987;53.140;8.904;2022-10-16T07:01:00;13.30;99.90
11855;DHT22;5987;53.140;8.904;2022-10-16T07:04:04;13.40;99.90
11855;DHT22;5987;53.140;8.904;2022-10-16T07:07:09;13.40;99.90
11855;DHT22;5987;53.140;8.904;2022-10-16T07:10:12;13.40;99.90
11855;DHT22;5987;53.140;8.904;2022-10-16T07:13:16;13.40;99.90
11855;DHT22;5987;53.140;8.904;2022-10-16T07:16:21;13.50;99.90
11855;DHT22;5987;53.140;8.904;2022-10-16T07:19:26;13.50;99.90
11855;DHT22;5987;53.140;8.904;2022-10-16T07:22:36;13.50;99.90
11855;DHT22;5987;53.140;8.904;2022-10-16T07:25:40;13.60;99.90
11855;DHT22;5987;53.140;8.904;2022-10-16T07:28:43;13.70;99.90
11855;DHT22;5987;53.140;8.904;2022-10-16T07:31:48;13.80;99.90
11855;DHT22;5987;53.140;8.904;2022-10-16T07:34:52;13.90;99.90
11855;DHT22;5987;53.140;8.904;2022-10-16T07:37:59;14.10;99.90
11855;DHT22;5987;53.140;8.904;2022-10-16T07:41:05;14.10;99.90
11855;DHT22;5987;53.140;8.904;2022-10-16T07:44:10;14.20;99.90
11855;DHT22;5987;53.140;8.904;2022-10-16T07:47:14;14.20;99.90
11855;DHT22;5987;53.140;8.904;2022-10-16T07:50:18;14.20;99.90
11855;DHT22;5987;53.140;8.904;2022-10-16T07:53:23;14.20;99.90
11855;DHT22;5987;53.140;8.904;2022-10-16T07:56:28;14.20;99.90
11855;DHT22;5987;53.140;8.904;2022-10-16T07:59:34;14.20;99.90
11855;DHT22;5987;53.140;8.904;2022-10-16T08:02:37;14.20;99.90
11855;DHT22;5987;53.140;8.904;2022-10-16T08:05:41;14.30;99.90
11855;DHT22;5987;53.140;8.904;2022-10-16T08:08:46;14.40;99.90
11855;DHT22;5987;53.140;8.904;2022-10-16T08:11:50;14.50;99.90
11855;DHT22;5987;53.140;8.904;2022-10-16T08:14:54;14.70;99.90
11855;DHT22;5987;53.140;8.904;2022-10-16T08:17:59;14.80;99.90
11855;DHT22;5987;53.140;8.904;2022-10-16T08:21:05;14.90;99.90
11855;DHT22;5987;53.140;8.904;2022-10-16T08:24:19;14.90;99.90
11855;DHT22;5987;53.140;8.904;2022-10-16T08:27:23;15.10;99.90
11855;DHT22;5987;53.140;8.904;2022-10-16T08:30:27;15.10;99.90
11855;DHT22;5987;53.140;8.904;2022-10-16T08:33:31;15.20;99.90
11855;DHT22;5987;53.140;8.904;2022-10-16T08:36:37;15.20;99.90
11855;DHT22;5987;53.140;8.904;2022-10-16T08:39:42;15.30;99.90
11855;DHT22;5987;53.140;8.904;2022-10-16T08:43:18;15.30;99.90
11855;DHT22;5987;53.140;8.904;2022-10-16T08:46:40;15.40;99.90
11855;DHT22;5987;53.140;8.904;2022-10-16T08:49:56;15.50;99.90
11855;DHT22;5987;53.140;8.904;2022-10-16T08:53:04;15.70;99.90
11855;DHT22;5987;53.140;8.904;2022-10-16T08:56:11;15.80;99.90
11855;DHT22;5987;53.140;8.904;2022-10-16T08:59:16;15.90;99.90
11855;DHT22;5987;53.140;8.904;2022-10-16T09:02:25;15.90;99.90
11855;DHT22;5987;53.140;8.904;2022-10-16T09:05:55;15.80;99.90
11855;DHT22;5987;53.140;8.904;2022-10-16T09:09:32;15.70;99.90
11855;DHT22;5987;53.140;8.904;2022-10-16T09:13:02;15.80;99.90
11855;DHT22;5987;53.140;8.904;2022-10-16T09:16:18;15.80;99.90
11855;DHT22;5987;53.140;8.904;2022-10-16T09:19:30;15.90;99.90
11855;DHT22;5987;53.140;8.904;2022-10-16T09:22:40;16.00;99.90
11855;DHT22;5987;53.140;8.904;2022-10-16T09:25:46;16.00;99.90
11855;DHT22;5987;53.140;8.904;2022-10-16T09:28:53;16.20;99.90
11855;DHT22;5987;53.140;8.904;2022-10-16T09:31:58;16.30;99.90
11855;DHT22;5987;53.140;8.904;2022-10-16T09:35:17;16.40;99.90
11855;DHT22;5987;53.140;8.904;2022-10-16T09:38:26;16.60;99.90
11855;DHT22;5987;53.140;8.904;2022-10-16T09:41:34;16.70;99.90
11855;DHT22;5987;53.140;8.904;2022-10-16T09:44:41;16.70;99.90
11855;DHT22;5987;53.140;8.904;2022-10-16T09:47:45;16.90;99.90
11855;DHT22;5987;53.140;8.904;2022-10-16T09:50:56;16.90;99.90
11855;DHT22;5987;53.140;8.904;2022-10-16T09:54:01;16.90;99.90
11855;DHT22;5987;53.140;8.904;2022-10-16T09:57:16;16.90;99.90
11855;DHT22;5987;53.140;8.904;2022-10-16T10:00:23;16.90;99.90
11855;DHT22;5987;53.140;8.904;2022-10-16T10:03:34;16.90;99.90
11855;DHT22;5987;53.140;8.904;2022-10-16T10:06:43;17.00;99.90
11855;DHT22;5987;53.140;8.904;2022-10-16T10:09:48;17.10;99.90
11855;DHT22;5987;53.140;8.904;2022-10-16T10:12:53;17.20;99.90
11855;DHT22;5987;53.140;8.904;2022-10-16T10:15:59;17.20;99.90
11855;DHT22;5987;53.140;8.904;2022-10-16T10:19:02;17.10;99.90
11855;DHT22;5987;53.140;8.904;2022-10-16T10:22:22;17.10;99.90
11855;DHT22;5987;53.140;8.904;2022-10-16T10:25:39;17.20;99.90
11855;DHT22;5987;53.140;8.904;2022-10-16T10:28:57;17.30;99.90
11855;DHT22;5987;53.140;8.904;2022-10-16T10:32:18;17.20;99.90
11855;DHT22;5987;53.140;8.904;2022-10-16T10:35:36;17.20;99.90
11855;DHT22;5987;53.140;8.904;2022-10-16T10:38:50;17.30;99.90
11855;DHT22;5987;53.140;8.904;2022-10-16T10:42:06;17.50;99.90
11855;DHT22;5987;53.140;8.904;2022-10-16T10:45:22;17.60;99.90
11855;DHT22;5987;53.140;8.904;2022-10-16T10:48:49;17.60;99.90
11855;DHT22;5987;53.140;8.904;2022-10-16T10:52:10;17.60;99.90
11855;DHT22;5987;53.140;8.904;2022-10-16T10:55:40;17.50;99.90
11855;DHT22;5987;53.140;8.904;2022-10-16T10:59:05;17.70;99.90
11855;DHT22;5987;53.140;8.904;2022-10-16T11:02:25;17.90;99.90
11855;DHT22;5987;53.140;8.904;2022-10-16T11:05:43;17.80;99.90
11855;DHT22;5987;53.140;8.904;2022-10-16T11:08:51;17.90;99.90
11855;DHT22;5987;53.140;8.904;2022-10-16T11:12:06;17.90;99.90
11855;DHT22;5987;53.140;8.904;2022-10-16T11:15:19;17.90;99.90
11855;DHT22;5987;53.140;8.904;2022-10-16T11:18:32;17.80;99.90
11855;DHT22;5987;53.140;8.904;2022-10-16T11:21:51;18.00;99.90
11855;DHT22;5987;53.140;8.904;2022-10-16T11:25:04;18.00;99.90
11855;DHT22;5987;53.140;8.904;2022-10-16T11:28:19;18.00;99.90
11855;DHT22;5987;53.140;8.904;2022-10-16T11:31:36;18.00;99.90
11855;DHT22;5987;53.140;8.904;2022-10-16T11:34:44;17.90;99.90
11855;DHT22;5987;53.140;8.904;2022-10-16T11:37:55;17.90;99.90
11855;DHT22;5987;53.140;8.904;2022-10-16T11:41:05;18.00;99.90
11855;DHT22;5987;53.140;8.904;2022-10-16T11:44:35;18.20;99.90
11855;DHT22;5987;53.140;8.904;2022-10-16T11:47:47;18.30;99.90
11855;DHT22;5987;53.140;8.904;2022-10-16T11:51:06;18.10;99.90
11855;DHT22;5987;53.140;8.904;2022-10-16T11:54:24;18.20;99.90
11855;DHT22;5987;53.140;8.904;2022-10-16T11:57:40;18.30;99.90
11855;DHT22;5987;53.140;8.904;2022-10-16T12:00:56;18.30;99.90
11855;DHT22;5987;53.140;8.904;2022-10-16T12:04:19;18.30;99.90
11855;DHT22;5987;53.140;8.904;2022-10-16T12:07:34;18.40;99.90
11855;DHT22;5987;53.140;8.904;2022-10-16T12:10:46;18.30;99.90
11855;DHT22;5987;53.140;8.904;2022-10-16T12:13:51;18.30;99.90
11855;DHT22;5987;53.140;8.904;2022-10-16T12:16:56;18.20;99.90
11855;DHT22;5987;53.140;8.904;2022-10-16T12:20:20;18.10;99.90
11855;DHT22;5987;53.140;8.904;2022-10-16T12:23:26;18.10;99.90
11855;DHT22;5987;53.140;8.904;2022-10-16T12:26:33;18.10;99.90
11855;DHT22;5987;53.140;8.904;2022-10-16T12:29:41;18.20;99.90
11855;DHT22;5987;53.140;8.904;2022-10-16T12:32:53;18.40;99.90
11855;DHT22;5987;53.140;8.904;2022-10-16T12:36:00;18.40;99.90
11855;DHT22;5987;53.140;8.904;2022-10-16T12:39:20;18.40;99.90
11855;DHT22;5987;53.140;8.904;2022-10-16T12:42:34;18.40;99.90
11855;DHT22;5987;53.140;8.904;2022-10-16T12:45:38;18.60;99.90
11855;DHT22;5987;53.140;8.904;2022-10-16T12:48:44;18.70;99.90
11855;DHT22;5987;53.140;8.904;2022-10-16T12:52:25;18.80;99.90
11855;DHT22;5987;53.140;8.904;2022-10-16T12:55:41;18.90;99.90
11855;DHT22;5987;53.140;8.904;2022-10-16T12:59:04;19.00;99.90
11855;DHT22;5987;53.140;8.904;2022-10-16T13:02:36;19.10;99.90
11855;DHT22;5987;53.140;8.904;2022-10-16T13:06:03;19.20;99.90
11855;DHT22;5987;53.140;8.904;2022-10-16T13:09:29;19.30;99.90
11855;DHT22;5987;53.140;8.904;2022-10-16T13:13:17;19.30;99.90
11855;DHT22;5987;53.140;8.904;2022-10-16T13:16:46;19.40;99.90
11855;DHT22;5987;53.140;8.904;2022-10-16T13:20:04;19.40;99.90
11855;DHT22;5987;53.140;8.904;2022-10-16T13:23:21;19.40;99.90
11855;DHT22;5987;53.140;8.904;2022-10-16T13:26:39;19.40;99.90
11855;DHT22;5987;53.140;8.904;2022-10-16T13:29:48;19.20;99.90
11855;DHT22;5987;53.140;8.904;2022-10-16T13:33:02;19.10;99.90
11855;DHT22;5987;53.140;8.904;2022-10-16T13:36:19;19.00;99.90
11855;DHT22;5987;53.140;8.904;2022-10-16T13:39:26;18.80;99.90
11855;DHT22;5987;53.140;8.904;2022-10-16T13:42:32;18.70;99.90
11855;DHT22;5987;53.140;8.904;2022-10-16T13:45:36;18.70;99.90
11855;DHT22;5987;53.140;8.904;2022-10-16T13:48:41;18.70;99.90
11855;DHT22;5987;53.140;8.904;2022-10-16T13:51:54;18.80;99.90
11855;DHT22;5987;53.140;8.904;2022-10-16T13:54:59;18.90;99.90
11855;DHT22;5987;53.140;8.904;2022-10-16T13:58:08;18.90;99.90
11855;DHT22;5987;53.140;8.904;2022-10-16T14:01:17;18.90;99.90
11855;DHT22;5987;53.140;8.904;2022-10-16T14:04:32;18.90;99.90
11855;DHT22;5987;53.140;8.904;2022-10-16T14:07:37;19.00;99.90
11855;DHT22;5987;53.140;8.904;2022-10-16T14:10:42;18.90;99.90
11855;DHT22;5987;53.140;8.904;2022-10-16T14:13:51;19.00;99.90
11855;DHT22;5987;53.140;8.904;2022-10-16T14:16:56;19.00;99.90
11855;DHT22;5987;53.140;8.904;2022-10-16T14:20:05;18.80;99.90
11855;DHT22;5987;53.140;8.904;2022-10-16T14:23:22;18.70;99.90
11855;DHT22;5987;53.140;8.904;2022-10-16T14:26:41;18.60;99.90
11855;DHT22;5987;53.140;8.904;2022-10-16T14:30:14;18.60;99.90
11855;DHT22;5987;53.140;8.904;2022-10-16T14:33:22;18.50;99.90
11855;DHT22;5987;53.140;8.904;2022-10-16T14:36:29;18.30;99.90
11855;DHT22;5987;53.140;8.904;2022-10-16T14:39:34;18.30;99.90
11855;DHT22;5987;53.140;8.904;2022-10-16T14:42:43;18.30;99.90
11855;DHT22;5987;53.140;8.904;2022-10-16T14:45:52;18.30;99.90
11855;DHT22;5987;53.140;8.904;2022-10-16T14:49:02;18.10;99.90
11855;DHT22;5987;53.140;8.904;2022-10-16T14:52:17;18.00;99.90
11855;DHT22;5987;53.140;8.904;2022-10-16T14:55:21;17.90;99.90
11855;DHT22;5987;53.140;8.904;2022-10-16T14:58:30;17.90;99.90
11855;DHT22;5987;53.140;8.904;2022-10-16T15:01:34;17.90;99.90
11855;DHT22;5987;53.140;8.904;2022-10-16T15:04:38;17.80;99.90
11855;DHT22;5987;53.140;8.904;2022-10-16T15:07:43;17.80;99.90
11855;DHT22;5987;53.140;8.904;2022-10-16T15:10:47;17.80;99.90
11855;DHT22;5987;53.140;8.904;2022-10-16T15:13:51;17.70;99.90
11855;DHT22;5987;53.140;8.904;2022-10-16T15:16:54;17.70;99.90
11855;DHT22;5987;53.140;8.904;2022-10-16T15:19:58;17.70;99.90
11855;DHT22;5987;53.140;8.904;2022-10-16T15:23:05;17.60;99.90
11855;DHT22;5987;53.140;8.904;2022-10-16T15:26:14;17.60;99.90
11855;DHT22;5987;53.140;8.904;2022-10-16T15:29:18;17.50;99.90
11855;DHT22;5987;53.140;8.904;2022-10-16T15:32:22;17.50;99.90
11855;DHT22;5987;53.140;8.904;2022-10-16T15:35:26;17.40;99.90
11855;DHT22;5987;53.140;8.904;2022-10-16T15:38:31;17.50;99.90
11855;DHT22;5987;53.140;8.904;2022-10-16T15:41:35;17.60;99.90
11855;DHT22;5987;53.140;8.904;2022-10-16T15:44:38;17.60;99.90
11855;DHT22;5987;53.140;8.904;2022-10-16T15:47:42;17.70;99.90
11855;DHT22;5987;53.140;8.904;2022-10-16T15:50:47;17.50;99.90
11855;DHT22;5987;53.140;8.904;2022-10-16T15:53:52;17.40;99.90
11855;DHT22;5987;53.140;8.904;2022-10-16T15:56:55;17.30;99.90
11855;DHT22;5987;53.140;8.904;2022-10-16T15:59:59;17.10;99.90
11855;DHT22;5987;53.140;8.904;2022-10-16T16:03:07;16.90;99.90
11855;DHT22;5987;53.140;8.904;2022-10-16T16:06:12;16.70;99.90
11855;DHT22;5987;53.140;8.904;2022-10-16T16:09:18;16.60;99.90
11855;DHT22;5987;53.140;8.904;2022-10-16T16:12:22;16.50;99.90
11855;DHT22;5987;53.140;8.904;2022-10-16T16:15:26;16.50;99.90
11855;DHT22;5987;53.140;8.904;2022-10-16T16:18:30;16.40;99.90
11855;DHT22;5987;53.140;8.904;2022-10-16T16:21:34;16.20;99.90
11855;DHT22;5987;53.140;8.904;2022-10-16T16:24:39;16.10;99.90
11855;DHT22;5987;53.140;8.904;2022-10-16T16:27:43;16.00;99.90
11855;DHT22;5987;53.140;8.904;2022-10-16T16:30:51;15.90;99.90
11855;DHT22;5987;53.140;8.904;2022-10-16T16:33:55;15.80;99.90
11855;DHT22;5987;53.140;8.904;2022-10-16T16:36:59;15.70;99.90
11855;DHT22;5987;53.140;8.904;2022-10-16T16:40:05;15.60;99.90
11855;DHT22;5987;53.140;8.904;2022-10-16T16:43:09;15.50;99.90
11855;DHT22;5987;53.140;8.904;2022-10-16T16:46:13;15.40;99.90
11855;DHT22;5987;53.140;8.904;2022-10-16T16:49:18;15.30;99.90
11855;DHT22;5987;53.140;8.904;2022-10-16T16:52:21;15.20;99.90
11855;DHT22;5987;53.140;8.904;2022-10-16T16:55:26;15.10;99.90
11855;DHT22;5987;53.140;8.904;2022-10-16T16:58:31;15.10;99.90
11855;DHT22;5987;53.140;8.904;2022-10-16T17:01:35;14.90;99.90
11855;DHT22;5987;53.140;8.904;2022-10-16T17:04:39;14.80;99.90
11855;DHT22;5987;53.140;8.904;2022-10-16T17:07:43;14.70;99.90
11855;DHT22;5987;53.140;8.904;2022-10-16T17:10:48;14.60;99.90
11855;DHT22;5987;53.140;8.904;2022-10-16T17:13:56;14.40;99.90
11855;DHT22;5987;53.140;8.904;2022-10-16T17:17:01;14.30;99.90
11855;DHT22;5987;53.140;8.904;2022-10-16T17:20:05;14.30;99.90
11855;DHT22;5987;53.140;8.904;2022-10-16T17:23:11;14.30;99.90
11855;DHT22;5987;53.140;8.904;2022-10-16T17:26:17;14.20;99.90
11855;DHT22;5987;53.140;8.904;2022-10-16T17:29:21;14.10;99.90
11855;DHT22;5987;53.140;8.904;2022-10-16T17:32:24;14.00;99.90
11855;DHT22;5987;53.140;8.904;2022-10-16T17:35:29;13.90;99.90
11855;DHT22;5987;53.140;8.904;2022-10-16T17:38:39;13.90;99.90
11855;DHT22;5987;53.140;8.904;2022-10-16T17:41:46;13.80;99.90
11855;DHT22;5987;53.140;8.904;2022-10-16T17:44:50;13.50;99.90
11855;DHT22;5987;53.140;8.904;2022-10-16T17:47:54;13.30;99.90
11855;DHT22;5987;53.140;8.904;2022-10-16T17:50:57;13.20;99.90
11855;DHT22;5987;53.140;8.904;2022-10-16T17:54:02;13.30;99.90
11855;DHT22;5987;53.140;8.904;2022-10-16T17:57:07;13.30;99.90
11855;DHT22;5987;53.140;8.904;2022-10-16T18:00:11;13.20;99.90
11855;DHT22;5987;53.140;8.904;2022-10-16T18:03:15;13.10;99.90
11855;DHT22;5987;53.140;8.904;2022-10-16T18:06:20;13.00;99.90
11855;DHT22;5987;53.140;8.904;2022-10-16T18:09:24;13.10;99.90
11855;DHT22;5987;53.140;8.904;2022-10-16T18:12:30;13.10;99.90
11855;DHT22;5987;53.140;8.904;2022-10-16T18:15:33;13.10;99.90
11855;DHT22;5987;53.140;8.904;2022-10-16T18:18:39;13.10;99.90
11855;DHT22;5987;53.140;8.904;2022-10-16T18:21:44;12.90;99.90
11855;DHT22;5987;53.140;8.904;2022-10-16T18:24:50;12.70;99.90
11855;DHT22;5987;53.140;8.904;2022-10-16T18:27:55;12.50;99.90
11855;DHT22;5987;53.140;8.904;2022-10-16T18:31:00;12.50;99.90
11855;DHT22;5987;53.140;8.904;2022-10-16T18:34:06;12.30;99.90
11855;DHT22;5987;53.140;8.904;2022-10-16T18:37:10;12.20;99.90
11855;DHT22;5987;53.140;8.904;2022-10-16T18:40:15;12.30;99.90
11855;DHT22;5987;53.140;8.904;2022-10-16T18:43:20;12.40;99.90
11855;DHT22;5987;53.140;8.904;2022-10-16T18:46:24;12.50;99.90
11855;DHT22;5987;53.140;8.904;2022-10-16T18:49:28;12.60;99.90
11855;DHT22;5987;53.140;8.904;2022-10-16T18:52:32;12.60;99.90
11855;DHT22;5987;53.140;8.904;2022-10-16T18:55:36;12.60;99.90
11855;DHT22;5987;53.140;8.904;2022-10-16T18:58:42;12.50;99.90
11855;DHT22;5987;53.140;8.904;2022-10-16T19:01:48;12.30;99.90
11855;DHT22;5987;53.140;8.904;2022-10-16T19:04:53;12.30;99.90
11855;DHT22;5987;53.140;8.904;2022-10-16T19:07:57;12.20;99.90
11855;DHT22;5987;53.140;8.904;2022-10-16T19:11:05;12.20;99.90
11855;DHT22;5987;53.140;8.904;2022-10-16T19:14:12;12.30;99.90
11855;DHT22;5987;53.140;8.904;2022-10-16T19:17:17;12.40;99.90
11855;DHT22;5987;53.140;8.904;2022-10-16T19:20:21;12.30;99.90
11855;DHT22;5987;53.140;8.904;2022-10-16T19:23:25;12.30;99.90
11855;DHT22;5987;53.140;8.904;2022-10-16T19:26:30;12.20;99.90
11855;DHT22;5987;53.140;8.904;2022-10-16T19:29:41;12.20;99.90
11855;DHT22;5987;53.140;8.904;2022-10-16T19:32:45;12.20;99.90
11855;DHT22;5987;53.140;8.904;2022-10-16T19:35:50;12.10;99.90
11855;DHT22;5987;53.140;8.904;2022-10-16T19:38:56;12.20;99.90
11855;DHT22;5987;53.140;8.904;2022-10-16T19:42:00;12.20;99.90
11855;DHT22;5987;53.140;8.904;2022-10-16T19:45:06;12.30;99.90
11855;DHT22;5987;53.140;8.904;2022-10-16T19:48:11;12.30;99.90
11855;DHT22;5987;53.140;8.904;2022-10-16T19:51:17;12.30;99.90
11855;DHT22;5987;53.140;8.904;2022-10-16T19:54:21;12.20;99.90
11855;DHT22;5987;53.140;8.904;2022-10-16T19:57:25;12.00;99.90
11855;DHT22;5987;53.140;8.904;2022-10-16T20:00:30;12.00;99.90
11855;DHT22;5987;53.140;8.904;2022-10-16T20:03:34;12.00;99.90
11855;DHT22;5987;53.140;8.904;2022-10-16T20:06:37;12.00;99.90
11855;DHT22;5987;53.140;8.904;2022-10-16T20:09:41;12.00;99.90